Time;durP1;ratioP1;P1;durP2;ratioP2;P2;SDS_P1;SDS_P2;PMS_P1;PMS_P2;Temp;Humidity;BMP_temperature;BMP_pressure;BME280_temperature;BME280_humidity;BME280_pressure;Samples;Min_cycle;Max_cycle;Signal;HPM_P1;HPM_P2
2024/01/04 00:00:48;;;;;;;10.50;9.73;;;8.30;99.90;;;;;;4979872;28;20206;-77
2024/01/04 00:03:15;;;;;;;10.07;9.47;;;8.20;99.90;;;;;;4959664;28;20195;-77
2024/01/04 00:05:43;;;;;;;10.80;10.07;;;8.20;99.90;;;;;;4958169;29;20873;-79
2024/01/04 00:08:09;;;;;;;10.37;9.67;;;8.20;99.90;;;;;;4939068;29;20683;-79
2024/01/04 00:10:36;;;;;;;10.20;9.70;;;8.20;99.90;;;;;;4938594;29;20688;-76
2024/01/04 00:13:04;;;;;;;10.60;9.90;;;8.20;99.90;;;;;;4944725;28;20311;-76
2024/01/04 00:15:31;;;;;;;10.93;10.23;;;8.20;99.90;;;;;;4934153;29;20195;-77
2024/01/04 00:17:58;;;;;;;11.07;10.27;;;8.20;99.90;;;;;;4930830;28;20195;-78
2024/01/04 00:20:25;;;;;;;10.57;9.70;;;8.20;99.90;;;;;;4956140;29;20195;-80
2024/01/04 00:22:52;;;;;;;10.90;10.20;;;8.10;99.90;;;;;;4960081;28;20211;-78
2024/01/04 00:25:19;;;;;;;11.30;10.60;;;8.10;99.90;;;;;;4937721;29;20266;-79
2024/01/04 00:27:46;;;;;;;11.27;10.57;;;8.10;99.90;;;;;;4933923;29;20202;-78
2024/01/04 00:30:13;;;;;;;11.37;10.67;;;8.00;99.90;;;;;;4940366;29;20207;-76
2024/01/04 00:32:43;;;;;;;11.57;10.77;;;8.00;99.90;;;;;;4954341;28;20192;-77
2024/01/04 00:35:11;;;;;;;12.13;11.23;;;8.00;99.90;;;;;;4925234;28;20712;-77
2024/01/04 00:37:38;;;;;;;13.23;12.23;;;8.00;99.90;;;;;;4956205;28;20246;-77
2024/01/04 00:40:08;;;;;;;12.17;11.23;;;8.10;99.90;;;;;;4950163;28;20196;-77
2024/01/04 00:42:36;;;;;;;12.37;11.47;;;8.00;99.90;;;;;;4938712;29;20713;-81
2024/01/04 00:45:03;;;;;;;13.20;12.10;;;8.00;99.90;;;;;;4928151;29;20302;-78
2024/01/04 00:47:32;;;;;;;12.50;11.60;;;8.00;99.90;;;;;;4948269;29;20206;-79
2024/01/04 00:49:59;;;;;;;12.63;11.73;;;8.00;99.90;;;;;;4956741;28;20215;-76
2024/01/04 00:52:26;;;;;;;13.43;12.27;;;8.10;99.90;;;;;;4952837;29;20196;-76
2024/01/04 00:54:53;;;;;;;12.90;12.00;;;8.10;99.90;;;;;;4957673;28;20199;-76
2024/01/04 00:57:21;;;;;;;14.00;12.83;;;8.00;99.90;;;;;;4951275;28;20205;-76
2024/01/04 00:59:50;;;;;;;13.23;12.17;;;8.20;99.90;;;;;;4928983;29;20207;-76
2024/01/04 01:02:17;;;;;;;12.90;11.90;;;8.20;99.90;;;;;;4924959;29;20211;-76
2024/01/04 01:04:45;;;;;;;12.43;11.43;;;8.10;99.90;;;;;;4957556;29;20199;-76
2024/01/04 01:07:12;;;;;;;12.60;11.70;;;8.20;99.90;;;;;;4957344;28;20206;-76
2024/01/04 01:09:39;;;;;;;13.13;12.23;;;8.10;99.90;;;;;;4957524;29;20294;-77
2024/01/04 01:12:06;;;;;;;12.80;11.90;;;8.10;99.90;;;;;;4935126;29;20541;-76
2024/01/04 01:14:33;;;;;;;12.83;11.93;;;8.10;99.90;;;;;;4943976;29;20596;-77
2024/01/04 01:17:00;;;;;;;12.70;11.70;;;8.00;99.90;;;;;;4936449;29;20538;-77
2024/01/04 01:19:27;;;;;;;12.97;12.07;;;8.00;99.90;;;;;;4908400;29;20199;-77
2024/01/04 01:21:55;;;;;;;13.80;12.70;;;8.00;99.90;;;;;;4933650;29;20204;-75
2024/01/04 01:24:22;;;;;;;13.03;11.97;;;7.90;99.90;;;;;;4937420;29;20311;-77
2024/01/04 01:26:49;;;;;;;15.03;12.43;;;8.00;99.90;;;;;;4920128;29;20215;-76
2024/01/04 01:29:16;;;;;;;12.93;11.57;;;7.90;99.90;;;;;;4939045;29;20291;-78
2024/01/04 01:31:43;;;;;;;12.40;11.50;;;8.00;99.90;;;;;;4940638;29;20250;-78
2024/01/04 01:34:10;;;;;;;12.50;11.50;;;8.00;99.90;;;;;;4954402;29;20199;-80
2024/01/04 01:36:41;;;;;;;12.53;11.13;;;7.90;99.90;;;;;;4940907;28;20230;-79
2024/01/04 01:39:08;;;;;;;12.53;11.30;;;7.90;99.90;;;;;;4940644;29;20195;-77
2024/01/04 01:41:36;;;;;;;11.80;10.90;;;7.90;99.90;;;;;;4949165;29;20192;-75
2024/01/04 01:44:03;;;;;;;11.43;10.63;;;7.90;99.90;;;;;;4953116;28;20187;-76
2024/01/04 01:46:31;;;;;;;12.47;11.37;;;7.90;99.90;;;;;;4932843;28;20286;-76
2024/01/04 01:48:58;;;;;;;11.73;10.83;;;8.00;99.90;;;;;;4932638;29;20273;-76
2024/01/04 01:51:26;;;;;;;11.63;10.73;;;8.00;99.90;;;;;;4951914;28;20610;-78
2024/01/04 01:53:54;;;;;;;12.37;11.57;;;8.00;99.90;;;;;;4940331;29;20202;-75
2024/01/04 01:56:22;;;;;;;11.93;11.13;;;8.00;99.90;;;;;;4941710;29;20274;-76
2024/01/04 01:58:51;;;;;;;11.57;10.73;;;8.00;99.90;;;;;;4954687;28;20558;-77
2024/01/04 02:01:18;;;;;;;11.80;11.00;;;8.00;99.90;;;;;;4955802;29;20223;-77
2024/01/04 02:03:46;;;;;;;12.20;11.30;;;8.00;99.90;;;;;;4939674;29;20203;-77
2024/01/04 02:06:13;;;;;;;12.17;11.37;;;8.00;99.90;;;;;;4914211;29;20207;-75
2024/01/04 02:08:41;;;;;;;13.27;12.03;;;8.00;99.90;;;;;;4938121;29;20195;-75
2024/01/04 02:11:09;;;;;;;13.37;12.03;;;8.00;99.90;;;;;;4938888;28;20223;-78
2024/01/04 02:13:36;;;;;;;12.83;11.93;;;8.00;99.90;;;;;;4940537;28;20319;-78
2024/01/04 02:16:03;;;;;;;12.60;11.67;;;8.00;99.90;;;;;;4929006;29;20204;-76
2024/01/04 02:18:31;;;;;;;13.30;12.20;;;8.00;99.90;;;;;;4884223;29;20213;-75
2024/01/04 02:20:58;;;;;;;12.43;11.60;;;8.00;99.90;;;;;;4900313;29;20205;-80
2024/01/04 02:23:25;;;;;;;12.27;11.07;;;8.00;99.90;;;;;;4909247;29;20716;-78
2024/01/04 02:25:53;;;;;;;13.60;12.40;;;8.00;99.90;;;;;;4917588;29;20211;-78
2024/01/04 02:28:20;;;;;;;13.90;12.70;;;8.10;99.90;;;;;;4910819;29;20728;-79
2024/01/04 02:30:47;;;;;;;12.37;11.57;;;8.10;99.90;;;;;;4925690;29;20224;-78
2024/01/04 02:33:15;;;;;;;12.97;11.90;;;8.10;99.90;;;;;;4931757;29;20558;-79
2024/01/04 02:35:42;;;;;;;12.17;11.27;;;8.10;99.90;;;;;;4917571;29;20717;-77
2024/01/04 02:38:09;;;;;;;13.07;11.93;;;8.00;99.90;;;;;;4917892;29;20224;-77
2024/01/04 02:40:36;;;;;;;12.57;11.63;;;8.10;99.90;;;;;;4934774;29;20236;-77
2024/01/04 02:43:09;;;;;;;12.10;11.00;;;7.90;99.90;;;;;;4920734;29;20642;-79
2024/01/04 02:45:36;;;;;;;11.83;11.03;;;8.00;99.90;;;;;;4916213;29;20204;-77
2024/01/04 02:48:04;;;;;;;11.90;11.10;;;8.00;99.90;;;;;;4918292;29;20259;-79
2024/01/04 02:50:31;;;;;;;10.67;9.97;;;8.00;99.90;;;;;;4918528;29;20753;-77
2024/01/04 02:52:59;;;;;;;10.20;9.60;;;7.90;99.90;;;;;;4915031;29;20283;-79
2024/01/04 02:55:26;;;;;;;10.27;9.57;;;7.90;99.90;;;;;;4933644;29;20196;-78
2024/01/04 02:57:53;;;;;;;11.00;10.20;;;7.80;99.90;;;;;;4934006;28;20193;-79
2024/01/04 03:04:21;;;;;;;10.80;10.20;;;7.80;99.90;;;;;;4919079;29;20651;-79
2024/01/04 03:06:49;;;;;;;10.37;9.70;;;7.80;99.90;;;;;;4917771;29;20208;-78
2024/01/04 03:09:16;;;;;;;10.40;9.63;;;7.90;99.90;;;;;;4942526;29;20573;-79
2024/01/04 03:11:43;;;;;;;10.80;10.20;;;7.80;99.90;;;;;;4916210;29;20323;-80
2024/01/04 03:14:10;;;;;;;10.20;9.50;;;7.80;99.90;;;;;;4896149;29;20248;-78
2024/01/04 03:16:37;;;;;;;12.03;10.17;;;7.80;99.90;;;;;;4931776;29;20210;-75
2024/01/04 03:19:04;;;;;;;10.37;9.77;;;7.70;99.90;;;;;;4931743;29;20205;-81
2024/01/04 03:21:31;;;;;;;10.80;10.10;;;7.80;99.90;;;;;;4930148;29;20717;-80
2024/01/04 03:23:58;;;;;;;11.80;10.80;;;7.60;99.90;;;;;;4914616;29;20236;-81
2024/01/04 03:26:25;;;;;;;11.30;10.50;;;7.60;99.90;;;;;;4932123;29;20208;-80
2024/01/04 03:28:52;;;;;;;10.20;9.60;;;7.50;99.90;;;;;;4932421;29;20208;-79
2024/01/04 03:31:19;;;;;;;10.27;9.67;;;7.70;99.90;;;;;;4908892;29;20216;-78
2024/01/04 03:33:49;;;;;;;10.60;9.90;;;7.60;99.90;;;;;;4922384;29;20713;-82
2024/01/04 03:36:16;;;;;;;10.37;9.70;;;7.60;99.90;;;;;;4912581;29;20193;-79
2024/01/04 03:38:45;;;;;;;10.40;9.70;;;7.70;99.90;;;;;;4932763;29;20221;-82
2024/01/04 03:41:12;;;;;;;10.80;10.10;;;7.60;99.90;;;;;;4928350;29;20209;-79
2024/01/04 03:43:39;;;;;;;10.00;9.40;;;7.40;99.90;;;;;;4926360;29;20211;-79
2024/01/04 03:46:10;;;;;;;10.50;9.67;;;7.50;99.90;;;;;;4917705;29;20244;-79
2024/01/04 03:48:40;;;;;;;10.70;10.00;;;7.50;99.90;;;;;;4931047;29;20994;-76
2024/01/04 03:51:09;;;;;;;10.50;9.80;;;7.60;99.90;;;;;;4914093;29;20213;-78
2024/01/04 03:53:36;;;;;;;10.33;9.73;;;7.60;99.90;;;;;;4922634;29;20208;-79
2024/01/04 03:56:04;;;;;;;9.70;9.20;;;7.60;99.90;;;;;;4931669;29;20201;-79
2024/01/04 03:58:32;;;;;;;10.33;9.60;;;7.60;99.90;;;;;;4929551;29;20197;-79
2024/01/04 04:01:02;;;;;;;10.00;9.40;;;7.70;99.90;;;;;;4901974;29;20214;-79
2024/01/04 04:03:29;;;;;;;10.77;9.83;;;7.60;99.90;;;;;;4915402;29;20200;-79
2024/01/04 04:05:56;;;;;;;10.57;9.93;;;7.70;99.90;;;;;;4930854;29;20614;-78
2024/01/04 04:08:23;;;;;;;10.40;9.80;;;7.60;99.90;;;;;;4921989;29;20602;-79
2024/01/04 04:10:50;;;;;;;10.10;9.50;;;7.60;99.90;;;;;;4916939;29;20219;-77
2024/01/04 04:13:17;;;;;;;10.40;9.70;;;7.60;99.90;;;;;;4951414;28;20262;-78
2024/01/04 04:15:44;;;;;;;10.37;9.77;;;7.60;99.90;;;;;;4939508;29;20198;-78
2024/01/04 04:18:12;;;;;;;10.40;9.73;;;7.70;99.90;;;;;;4939033;29;20192;-78
2024/01/04 04:20:39;;;;;;;10.80;10.00;;;7.60;99.90;;;;;;4951178;29;20231;-77
2024/01/04 04:23:06;;;;;;;10.50;9.70;;;7.60;99.90;;;;;;4951056;29;20244;-80
2024/01/04 04:25:36;;;;;;;10.73;9.93;;;7.60;99.90;;;;;;4955416;29;20316;-78
2024/01/04 04:28:03;;;;;;;9.90;9.30;;;7.60;99.90;;;;;;4939094;29;20223;-78
2024/01/04 04:30:30;;;;;;;10.80;10.00;;;7.70;99.90;;;;;;4937129;29;20215;-78
2024/01/04 04:32:58;;;;;;;10.13;9.50;;;7.70;99.90;;;;;;4945380;29;20208;-79
2024/01/04 04:35:25;;;;;;;9.77;9.27;;;7.70;99.90;;;;;;4955541;28;20207;-80
2024/01/04 04:37:52;;;;;;;10.50;9.60;;;7.80;99.90;;;;;;4956168;29;20216;-79
2024/01/04 04:40:19;;;;;;;10.30;9.50;;;7.80;99.90;;;;;;4955293;28;20745;-78
2024/01/04 04:42:46;;;;;;;10.93;10.23;;;7.90;99.90;;;;;;4928728;29;20192;-79
2024/01/04 04:45:13;;;;;;;10.63;9.93;;;7.80;99.90;;;;;;4929607;29;20919;-77
2024/01/04 04:47:40;;;;;;;11.00;10.20;;;7.80;99.90;;;;;;4952930;28;20279;-77
2024/01/04 04:50:08;;;;;;;10.47;9.60;;;7.80;99.90;;;;;;4938598;29;20211;-80
2024/01/04 04:52:35;;;;;;;10.63;9.70;;;7.80;99.90;;;;;;4936426;29;20184;-79
2024/01/04 04:55:03;;;;;;;10.70;9.90;;;7.70;99.90;;;;;;4954758;28;20207;-77
2024/01/04 04:57:32;;;;;;;10.80;10.10;;;7.90;99.90;;;;;;4938429;29;20211;-79
2024/01/04 05:00:00;;;;;;;10.70;10.00;;;7.80;99.90;;;;;;4936840;29;20188;-79
2024/01/04 05:02:27;;;;;;;10.60;9.90;;;7.80;99.90;;;;;;4936587;29;20211;-79
2024/01/04 05:04:54;;;;;;;10.70;9.67;;;7.90;99.90;;;;;;4948048;29;20243;-79
2024/01/04 05:07:22;;;;;;;10.43;9.47;;;7.80;99.90;;;;;;4923557;29;20278;-79
2024/01/04 05:09:53;;;;;;;10.37;9.60;;;7.80;99.90;;;;;;4930917;29;20204;-80
2024/01/04 05:12:20;;;;;;;10.10;9.50;;;7.80;99.90;;;;;;4940193;29;20671;-79
2024/01/04 05:14:47;;;;;;;10.90;10.10;;;7.90;99.90;;;;;;4940403;28;20640;-81
2024/01/04 05:17:15;;;;;;;10.50;9.80;;;7.80;99.90;;;;;;4966557;28;20214;-81
2024/01/04 05:19:45;;;;;;;11.13;10.40;;;7.90;99.90;;;;;;4933790;29;20220;-80
2024/01/04 05:22:12;;;;;;;10.90;10.00;;;7.80;99.90;;;;;;4955960;28;20209;-80
2024/01/04 05:24:39;;;;;;;10.90;10.00;;;7.80;99.90;;;;;;4941977;29;20199;-79
2024/01/04 05:27:06;;;;;;;10.90;10.00;;;7.70;99.90;;;;;;4953956;29;20300;-79
2024/01/04 05:29:34;;;;;;;10.70;10.00;;;7.80;99.90;;;;;;4943663;29;20195;-78
2024/01/04 05:32:02;;;;;;;10.83;10.13;;;7.80;99.90;;;;;;4942370;29;20215;-80
2024/01/04 05:34:32;;;;;;;10.80;9.90;;;7.80;99.90;;;;;;4942313;29;20265;-77
2024/01/04 05:36:59;;;;;;;15.33;10.00;;;7.70;99.90;;;;;;4938808;29;20242;-76
2024/01/04 05:39:27;;;;;;;10.90;10.00;;;7.80;99.90;;;;;;4964179;28;20707;-78
2024/01/04 05:41:55;;;;;;;9.93;9.13;;;7.70;99.90;;;;;;4942286;29;20215;-78
2024/01/04 05:44:23;;;;;;;11.37;10.47;;;7.70;99.90;;;;;;4941562;29;20297;-78
2024/01/04 05:46:50;;;;;;;11.53;10.53;;;7.70;99.90;;;;;;4942040;29;20663;-79
2024/01/04 05:49:17;;;;;;;11.67;10.50;;;7.70;99.90;;;;;;4938682;29;20202;-78
2024/01/04 05:51:44;;;;;;;10.90;10.23;;;7.70;99.90;;;;;;4947010;29;20764;-78
2024/01/04 05:54:11;;;;;;;10.20;9.27;;;7.60;99.90;;;;;;4971936;28;20770;-79
2024/01/04 05:56:43;;;;;;;10.10;9.40;;;7.60;99.90;;;;;;4938858;29;20199;-77
2024/01/04 05:59:10;;;;;;;10.00;9.33;;;7.60;99.90;;;;;;4940205;29;20202;-77
2024/01/04 06:01:39;;;;;;;10.40;9.60;;;7.60;99.90;;;;;;4941357;29;20328;-78
2024/01/04 06:04:06;;;;;;;10.83;10.00;;;7.60;99.90;;;;;;4939178;29;20202;-79
2024/01/04 06:06:33;;;;;;;10.40;9.60;;;7.70;99.90;;;;;;4956540;29;20273;-78
2024/01/04 06:09:00;;;;;;;10.63;9.97;;;7.70;99.90;;;;;;4941277;29;20672;-78
2024/01/04 06:11:27;;;;;;;10.70;9.80;;;7.70;99.90;;;;;;4941376;29;20215;-79
2024/01/04 06:13:54;;;;;;;10.33;9.73;;;7.70;99.90;;;;;;4955236;28;20223;-79
2024/01/04 06:16:21;;;;;;;10.93;10.13;;;7.70;99.90;;;;;;4956217;29;20225;-78
2024/01/04 06:18:48;;;;;;;11.10;10.30;;;7.70;99.90;;;;;;4923503;29;20615;-79
2024/01/04 06:21:16;;;;;;;11.10;9.70;;;7.60;99.90;;;;;;4940121;29;20265;-79
2024/01/04 06:23:43;;;;;;;11.03;10.13;;;7.70;99.90;;;;;;4939497;29;20214;-77
2024/01/04 06:26:20;;;;;;;10.57;9.80;;;7.70;99.90;;;;;;4943550;28;20195;-78
2024/01/04 06:28:47;;;;;;;9.73;9.23;;;7.70;99.90;;;;;;4942699;29;20198;-78
2024/01/04 06:31:14;;;;;;;10.97;10.17;;;7.70;99.90;;;;;;4940064;29;20219;-78
2024/01/04 06:33:41;;;;;;;10.20;9.50;;;7.70;99.90;;;;;;4956795;28;20194;-78
2024/01/04 06:36:08;;;;;;;10.33;9.53;;;7.70;99.90;;;;;;4955963;29;20294;-78
2024/01/04 06:38:35;;;;;;;10.60;9.90;;;7.70;99.90;;;;;;4940728;29;20226;-79
2024/01/04 06:41:04;;;;;;;10.60;10.00;;;7.70;99.90;;;;;;4956246;29;20207;-79
2024/01/04 06:43:31;;;;;;;11.23;10.20;;;7.60;99.90;;;;;;4927114;29;20207;-78
2024/01/04 06:45:58;;;;;;;11.87;10.87;;;7.70;99.90;;;;;;4945461;29;20629;-78
2024/01/04 06:48:25;;;;;;;10.93;10.13;;;7.60;99.90;;;;;;4944492;29;20245;-78
2024/01/04 06:50:53;;;;;;;10.63;10.03;;;7.60;99.90;;;;;;4939596;29;20219;-78
2024/01/04 06:53:21;;;;;;;10.63;10.03;;;7.60;99.90;;;;;;4946939;29;20213;-78
2024/01/04 06:55:48;;;;;;;10.60;10.00;;;7.60;99.90;;;;;;4960070;28;20198;-79
2024/01/04 06:58:15;;;;;;;10.67;10.07;;;7.60;99.90;;;;;;4937887;29;20195;-79
2024/01/04 07:00:42;;;;;;;11.03;10.33;;;7.60;99.90;;;;;;4955162;29;20202;-78
2024/01/04 07:03:09;;;;;;;11.20;10.40;;;7.70;99.90;;;;;;4933209;29;20199;-79
2024/01/04 07:05:36;;;;;;;11.37;10.47;;;7.60;99.90;;;;;;4925630;29;20930;-79
2024/01/04 07:08:04;;;;;;;11.13;10.43;;;7.60;99.90;;;;;;4938849;29;20210;-75
2024/01/04 07:10:31;;;;;;;10.80;10.20;;;7.70;99.90;;;;;;4954295;28;20679;-78
2024/01/04 07:12:58;;;;;;;10.40;9.90;;;7.70;99.90;;;;;;4955199;29;20235;-77
2024/01/04 07:15:25;;;;;;;11.43;10.30;;;7.60;99.90;;;;;;4954567;29;20682;-78
2024/01/04 07:17:54;;;;;;;10.90;10.30;;;7.60;99.90;;;;;;4938715;28;20207;-78
2024/01/04 07:20:21;;;;;;;11.43;10.63;;;7.60;99.90;;;;;;4950759;29;20203;-77
2024/01/04 07:22:53;;;;;;;11.43;10.40;;;7.60;99.90;;;;;;4938381;29;20211;-79
2024/01/04 07:25:22;;;;;;;10.90;10.20;;;7.60;99.90;;;;;;4922980;29;20214;-77
2024/01/04 07:27:50;;;;;;;11.20;10.30;;;7.50;99.90;;;;;;4954548;28;20301;-79
2024/01/04 07:30:17;;;;;;;10.97;10.33;;;7.60;99.90;;;;;;4939347;29;20679;-78
2024/01/04 07:32:44;;;;;;;10.40;9.80;;;7.50;99.90;;;;;;4955502;29;20218;-77
2024/01/04 07:35:12;;;;;;;10.67;10.00;;;7.60;99.90;;;;;;4955253;29;21074;-77
2024/01/04 07:37:44;;;;;;;11.37;10.37;;;7.60;99.90;;;;;;4966722;28;20580;-79
2024/01/04 07:40:12;;;;;;;10.37;9.77;;;7.60;99.90;;;;;;4939621;29;20206;-79
2024/01/04 07:42:39;;;;;;;11.03;9.93;;;7.50;99.90;;;;;;4955641;28;20567;-79
2024/01/04 07:45:07;;;;;;;10.47;9.77;;;7.50;99.90;;;;;;4966152;28;20207;-78
2024/01/04 07:47:37;;;;;;;10.80;10.00;;;7.50;99.90;;;;;;4952152;29;20520;-78
2024/01/04 07:50:06;;;;;;;11.00;10.17;;;7.40;99.90;;;;;;4950443;29;20214;-78
2024/01/04 07:52:33;;;;;;;11.67;10.57;;;7.50;99.90;;;;;;4952124;29;20239;-78
2024/01/04 07:55:00;;;;;;;11.17;10.27;;;7.40;99.90;;;;;;4964699;28;20605;-79
2024/01/04 07:57:32;;;;;;;10.70;10.00;;;7.40;99.90;;;;;;4962954;28;20198;-81
2024/01/04 07:59:59;;;;;;;11.57;10.70;;;7.40;99.90;;;;;;4965347;28;20199;-80
2024/01/04 08:02:28;;;;;;;11.37;10.57;;;7.50;99.90;;;;;;4939498;29;20204;-78
2024/01/04 08:04:56;;;;;;;11.43;10.37;;;7.40;99.90;;;;;;4939235;29;20211;-78
2024/01/04 08:07:23;;;;;;;10.70;9.90;;;7.40;99.90;;;;;;4943027;28;20234;-78
2024/01/04 08:09:51;;;;;;;10.87;10.27;;;7.60;99.90;;;;;;4943536;29;20210;-78
2024/01/04 08:12:17;;;;;;;11.07;10.47;;;7.40;99.90;;;;;;4958267;29;20226;-78
2024/01/04 08:14:45;;;;;;;11.33;10.63;;;7.50;99.90;;;;;;4959102;29;20183;-77
2024/01/04 08:17:13;;;;;;;11.77;11.00;;;7.50;99.90;;;;;;4967502;28;20234;-78
2024/01/04 08:19:40;;;;;;;10.93;10.30;;;7.50;99.90;;;;;;4959835;29;20636;-78
2024/01/04 08:22:07;;;;;;;12.47;11.50;;;7.50;99.90;;;;;;4942522;29;20548;-78
2024/01/04 08:24:34;;;;;;;11.03;10.43;;;7.50;99.90;;;;;;4944256;29;20203;-78
2024/01/04 08:27:02;;;;;;;11.57;10.67;;;7.60;99.90;;;;;;4959950;29;20209;-78
2024/01/04 08:29:30;;;;;;;11.70;10.80;;;7.60;99.90;;;;;;4940281;29;20214;-78
2024/01/04 08:31:58;;;;;;;11.73;10.83;;;7.60;99.90;;;;;;4947860;29;20606;-78
2024/01/04 08:34:27;;;;;;;12.27;11.30;;;7.60;99.90;;;;;;4941904;28;20214;-78
2024/01/04 08:36:54;;;;;;;12.33;11.33;;;7.60;99.90;;;;;;4960225;28;20313;-78
2024/01/04 08:39:21;;;;;;;11.70;11.00;;;7.70;99.90;;;;;;4942017;29;20612;-78
2024/01/04 08:41:48;;;;;;;11.33;10.73;;;7.70;99.90;;;;;;4964366;29;20206;-79
2024/01/04 08:44:15;;;;;;;11.73;10.77;;;7.70;99.90;;;;;;4959344;29;20213;-79
2024/01/04 08:46:42;;;;;;;12.30;11.40;;;7.70;99.90;;;;;;4963587;28;20198;-79
2024/01/04 08:49:09;;;;;;;12.40;11.43;;;7.70;99.90;;;;;;4943185;29;20213;-79
2024/01/04 08:51:37;;;;;;;12.63;11.53;;;7.80;99.90;;;;;;4926646;29;20235;-79
2024/01/04 08:54:04;;;;;;;11.97;11.07;;;7.80;99.90;;;;;;4942413;29;20306;-80
2024/01/04 08:56:32;;;;;;;11.70;10.90;;;7.80;99.90;;;;;;4947666;28;20199;-79
2024/01/04 08:59:00;;;;;;;11.30;10.60;;;7.80;99.90;;;;;;4958533;28;20259;-79
2024/01/04 09:01:27;;;;;;;11.70;11.00;;;7.70;99.90;;;;;;4949301;29;20262;-79
2024/01/04 09:03:55;;;;;;;11.70;10.87;;;7.70;99.90;;;;;;4956030;29;20233;-79
2024/01/04 09:06:22;;;;;;;11.63;10.80;;;7.70;99.90;;;;;;4941379;29;20922;-79
2024/01/04 09:08:49;;;;;;;11.73;11.03;;;7.90;99.90;;;;;;4941530;29;20261;-79
2024/01/04 09:11:16;;;;;;;12.00;11.10;;;7.80;99.90;;;;;;4938062;29;20358;-81
2024/01/04 09:13:45;;;;;;;11.93;11.13;;;7.80;99.90;;;;;;4939421;29;20242;-79
2024/01/04 09:16:12;;;;;;;14.33;11.50;;;7.80;99.90;;;;;;4941410;29;20226;-78
2024/01/04 09:18:39;;;;;;;12.13;11.33;;;8.00;99.90;;;;;;4944897;29;20202;-78
2024/01/04 09:21:08;;;;;;;12.53;11.63;;;7.90;99.90;;;;;;4957108;29;20205;-79
2024/01/04 09:23:35;;;;;;;12.50;11.60;;;8.00;99.90;;;;;;4958225;29;20197;-78
2024/01/04 09:26:08;;;;;;;11.63;11.03;;;8.00;99.90;;;;;;4957641;29;20218;-78
2024/01/04 09:28:36;;;;;;;11.80;11.00;;;8.00;99.90;;;;;;4940782;29;20278;-79
2024/01/04 09:31:06;;;;;;;12.30;11.10;;;8.00;99.90;;;;;;4941056;29;20199;-79
2024/01/04 09:33:34;;;;;;;13.30;12.33;;;8.10;99.90;;;;;;4940669;29;20610;-79
2024/01/04 09:36:02;;;;;;;12.43;11.47;;;8.10;99.90;;;;;;4940428;29;20191;-78
2024/01/04 09:38:32;;;;;;;12.03;11.13;;;8.10;99.90;;;;;;4956284;28;20242;-79
2024/01/04 09:41:16;;;;;;;11.77;11.10;;;8.10;99.90;;;;;;4924332;29;20823;-79
2024/01/04 09:43:43;;;;;;;12.37;11.57;;;8.10;99.90;;;;;;4956317;29;20195;-76
2024/01/04 09:46:17;;;;;;;11.80;11.00;;;8.10;99.90;;;;;;4957135;28;20205;-78
2024/01/04 09:48:55;;;;;;;11.93;10.80;;;8.20;99.90;;;;;;4954191;29;20218;-77
2024/01/04 09:51:28;;;;;;;10.80;10.10;;;8.20;99.90;;;;;;4937039;29;20547;-78
2024/01/04 09:53:55;;;;;;;12.73;11.77;;;8.40;99.90;;;;;;4940138;29;20203;-77
2024/01/04 09:56:26;;;;;;;12.17;11.40;;;8.30;99.90;;;;;;4939699;29;20195;-78
2024/01/04 09:58:53;;;;;;;12.00;11.13;;;8.30;99.90;;;;;;4954576;28;20206;-77
2024/01/04 10:01:40;;;;;;;12.70;11.63;;;8.30;99.90;;;;;;4936615;29;20211;-78
2024/01/04 10:04:13;;;;;;;11.53;10.83;;;8.30;99.90;;;;;;4919955;29;20546;-79
2024/01/04 10:06:43;;;;;;;12.77;11.80;;;8.20;99.90;;;;;;4936596;29;20201;-80
2024/01/04 10:09:41;;;;;;;12.30;11.43;;;8.20;99.90;;;;;;4949275;29;20297;-78
2024/01/04 10:12:11;;;;;;;12.10;11.20;;;8.20;99.90;;;;;;4955641;29;20823;-78
2024/01/04 10:14:38;;;;;;;12.50;11.60;;;8.10;99.90;;;;;;4954891;29;20872;-78
2024/01/04 10:17:09;;;;;;;12.47;11.37;;;8.20;99.90;;;;;;4939094;29;20675;-77
2024/01/04 10:19:37;;;;;;;12.07;11.23;;;8.10;99.90;;;;;;4939180;29;20210;-76
2024/01/04 10:22:08;;;;;;;11.53;10.73;;;8.10;99.90;;;;;;4943803;29;20297;-75
2024/01/04 10:24:38;;;;;;;11.13;10.40;;;8.30;99.90;;;;;;4957302;29;20203;-78
2024/01/04 10:27:08;;;;;;;11.17;10.47;;;8.60;99.90;;;;;;4956655;29;20206;-79
2024/01/04 10:29:37;;;;;;;12.27;11.37;;;8.90;99.90;;;;;;4940538;29;20203;-78
2024/01/04 10:32:08;;;;;;;13.10;11.80;;;9.10;99.90;;;;;;4956720;29;20281;-79
2024/01/04 10:34:37;;;;;;;13.20;12.37;;;9.20;99.90;;;;;;4963836;28;20222;-79
2024/01/04 10:37:12;;;;;;;13.00;12.00;;;9.00;99.90;;;;;;4941242;28;20226;-79
2024/01/04 10:39:45;;;;;;;13.30;12.10;;;8.80;99.90;;;;;;4940786;29;20671;-78
2024/01/04 10:42:13;;;;;;;12.70;11.90;;;8.70;99.90;;;;;;4956551;29;20203;-78
2024/01/04 10:44:43;;;;;;;12.20;11.50;;;8.50;99.90;;;;;;4955965;29;20688;-78
2024/01/04 10:47:13;;;;;;;13.07;12.17;;;8.40;99.90;;;;;;4940175;29;20233;-79
2024/01/04 10:49:42;;;;;;;12.20;11.50;;;8.40;99.90;;;;;;4956915;29;20202;-78
2024/01/04 10:52:15;;;;;;;13.33;12.23;;;8.30;99.90;;;;;;4940690;29;20213;-79
2024/01/04 10:54:43;;;;;;;11.90;11.20;;;8.30;99.90;;;;;;4938161;29;20290;-79
2024/01/04 10:57:11;;;;;;;12.63;11.73;;;8.30;99.90;;;;;;4946657;28;20195;-79
2024/01/04 10:59:40;;;;;;;12.10;11.30;;;8.40;99.90;;;;;;4937819;29;20223;-79
2024/01/04 11:02:21;;;;;;;11.83;11.07;;;8.50;99.90;;;;;;4957000;28;20541;-79
2024/01/04 11:04:50;;;;;;;13.30;12.10;;;8.60;99.90;;;;;;4923022;29;20204;-80
2024/01/04 11:07:21;;;;;;;14.23;13.27;;;8.70;99.90;;;;;;4936772;29;20255;-79
2024/01/04 11:09:49;;;;;;;12.97;12.17;;;8.60;99.90;;;;;;4957606;29;20647;-79
2024/01/04 11:12:19;;;;;;;12.30;11.50;;;8.60;99.90;;;;;;4957768;29;20215;-80
2024/01/04 11:14:47;;;;;;;12.17;11.47;;;8.50;99.90;;;;;;4956488;29;20254;-79
2024/01/04 11:17:32;;;;;;;12.70;11.57;;;8.60;99.90;;;;;;4924934;29;20650;-80
2024/01/04 11:20:28;;;;;;;12.20;11.40;;;8.50;99.90;;;;;;4941739;29;20255;-78
2024/01/04 11:23:13;;;;;;;11.90;11.13;;;8.60;99.90;;;;;;4957183;29;20207;-79
2024/01/04 11:26:17;;;;;;;12.20;11.10;;;8.60;99.90;;;;;;4940859;29;20230;-79
2024/01/04 11:28:46;;;;;;;12.00;11.00;;;8.80;99.90;;;;;;4938990;29;20276;-79
2024/01/04 11:31:15;;;;;;;11.87;11.17;;;9.30;99.90;;;;;;4959143;29;20647;-79
2024/01/04 11:33:49;;;;;;;13.13;11.93;;;9.50;99.90;;;;;;4943338;29;20229;-79
2024/01/04 11:36:21;;;;;;;13.33;12.53;;;9.50;99.90;;;;;;4927330;29;20258;-79
2024/01/04 11:38:49;;;;;;;13.00;12.00;;;9.20;99.90;;;;;;4943560;29;20225;-78
2024/01/04 11:41:17;;;;;;;13.47;12.30;;;9.10;99.90;;;;;;4943671;29;20187;-79
2024/01/04 11:43:44;;;;;;;12.83;12.00;;;9.00;99.90;;;;;;4947703;29;20199;-79
2024/01/04 11:46:20;;;;;;;13.13;12.20;;;9.10;99.90;;;;;;4960841;28;20207;-78
2024/01/04 11:49:02;;;;;;;12.30;11.60;;;9.10;99.90;;;;;;4961085;29;20254;-79
2024/01/04 11:51:50;;;;;;;12.23;11.63;;;9.10;99.90;;;;;;4944453;29;20191;-77
2024/01/04 11:54:18;;;;;;;12.50;11.80;;;9.00;99.90;;;;;;4922047;29;20200;-79
2024/01/04 11:56:47;;;;;;;12.27;11.53;;;9.00;99.90;;;;;;4949097;29;20646;-78
2024/01/04 11:59:17;;;;;;;12.57;11.77;;;9.00;99.90;;;;;;4959997;29;20201;-78
2024/01/04 12:01:46;;;;;;;12.63;11.90;;;9.00;99.90;;;;;;4959772;29;20253;-79
2024/01/04 12:04:15;;;;;;;12.67;11.77;;;9.00;99.90;;;;;;4953147;29;20250;-78
2024/01/04 12:06:45;;;;;;;17.97;16.47;;;8.80;99.90;;;;;;4937736;29;20205;-78
2024/01/04 12:09:15;;;;;;;12.70;12.00;;;8.70;99.90;;;;;;4943321;29;20222;-78
2024/01/04 12:11:54;;;;;;;12.13;11.43;;;8.60;99.90;;;;;;4959464;29;20183;-78
2024/01/04 12:14:22;;;;;;;12.10;11.40;;;8.60;99.90;;;;;;4920972;29;1099436;-78
2024/01/04 12:16:51;;;;;;;12.07;11.37;;;8.60;99.90;;;;;;4958969;28;20686;-78
2024/01/04 12:19:18;;;;;;;11.90;11.20;;;8.50;99.90;;;;;;4942476;29;20607;-78
2024/01/04 12:21:46;;;;;;;12.10;11.20;;;8.40;99.90;;;;;;4943237;29;20225;-79
2024/01/04 12:24:15;;;;;;;11.60;10.87;;;8.50;99.90;;;;;;4935776;29;20659;-80
2024/01/04 12:26:44;;;;;;;11.67;11.00;;;8.60;99.90;;;;;;4956892;29;20242;-78
2024/01/04 12:29:11;;;;;;;11.70;11.03;;;8.60;99.90;;;;;;4961210;28;20195;-78
2024/01/04 12:31:42;;;;;;;11.53;10.80;;;8.70;99.90;;;;;;4924990;29;20298;-79
2024/01/04 12:34:10;;;;;;;11.43;10.80;;;8.60;99.90;;;;;;4954392;29;20237;-79
2024/01/04 12:36:40;;;;;;;11.73;10.90;;;8.60;99.90;;;;;;4945711;28;20207;-78
2024/01/04 12:39:31;;;;;;;11.33;10.57;;;8.60;99.90;;;;;;4934674;29;20209;-79
2024/01/04 12:41:59;;;;;;;11.67;10.93;;;8.60;99.90;;;;;;4942176;29;20196;-79
2024/01/04 12:44:27;;;;;;;11.77;11.03;;;8.60;99.90;;;;;;4960747;29;20187;-79
2024/01/04 12:47:08;;;;;;;12.50;11.70;;;8.60;99.90;;;;;;4934107;29;20301;-79
2024/01/04 12:49:36;;;;;;;12.70;11.77;;;8.50;99.90;;;;;;4934857;29;20203;-79